Time;durP1;ratioP1;P1;durP2;ratioP2;P2;SDS_P1;SDS_P2;PMS_P1;PMS_P2;Temp;Humidity;BMP_temperature;BMP_pressure;BME280_temperature;BME280_humidity;BME280_pressure;Samples;Min_cycle;Max_cycle;Signal;HPM_P1;HPM_P2
2024/03/02 00:02:44;;;;;;;26.50;15.90;;;;;;;7.58;83.28;99761.48;130589;1260;107646;-80
2024/03/02 00:05:53;;;;;;;24.90;16.80;;;;;;;7.57;83.31;99767.21;130811;1260;107606;-80
2024/03/02 00:09:01;;;;;;;31.30;22.30;;;;;;;7.55;83.44;99766.52;130763;1263;108463;-80
2024/03/02 00:12:08;;;;;;;27.50;18.70;;;;;;;7.52;83.48;99762.96;131041;1260;108106;-80
2024/03/02 00:15:48;;;;;;;27.90;16.70;;;;;;;7.48;83.55;99766.83;130917;1260;107567;-80
2024/03/02 00:18:54;;;;;;;21.60;14.60;;;;;;;7.46;83.69;99772.14;130868;1263;107683;-80
2024/03/02 00:22:03;;;;;;;25.70;17.20;;;;;;;7.43;83.83;99771.92;131148;1257;106428;-80
2024/03/02 00:25:10;;;;;;;21.90;15.20;;;;;;;7.42;83.93;99767.41;131143;1251;106504;-80
2024/03/02 00:28:23;;;;;;;26.60;17.80;;;;;;;7.44;83.88;99762.60;131340;1256;108099;-81
2024/03/02 00:31:28;;;;;;;27.20;16.90;;;;;;;7.43;83.88;99765.54;131433;1257;107725;-81
2024/03/02 00:34:35;;;;;;;24.70;18.00;;;;;;;7.40;84.01;99763.70;131229;1256;106831;-81
2024/03/02 00:37:40;;;;;;;23.00;15.00;;;;;;;7.35;84.06;99758.52;131208;1251;108508;-80
2024/03/02 00:40:47;;;;;;;20.90;13.80;;;;;;;7.32;84.12;99755.27;131353;1256;108811;-81
2024/03/02 00:44:00;;;;;;;22.10;14.80;;;;;;;7.33;84.33;99755.11;131393;1257;107712;-80
2024/03/02 00:47:05;;;;;;;22.60;15.20;;;;;;;7.35;84.25;99751.05;131352;1251;106855;-80
2024/03/02 00:50:11;;;;;;;24.00;16.00;;;;;;;7.38;84.34;99748.32;131169;1256;107641;-80
2024/03/02 00:53:18;;;;;;;23.30;15.80;;;;;;;7.39;84.56;99741.48;131050;1261;107615;-80
2024/03/02 00:56:24;;;;;;;24.70;16.50;;;;;;;7.38;84.39;99735.00;131118;1256;106465;-80
2024/03/02 00:59:29;;;;;;;23.50;14.90;;;;;;;7.35;84.62;99737.81;131298;1265;107591;-80
2024/03/02 01:02:35;;;;;;;21.10;13.30;;;;;;;7.32;84.61;99739.20;131300;1257;107655;-80
2024/03/02 01:05:43;;;;;;;22.80;15.30;;;;;;;7.27;84.37;99739.77;131317;1254;108517;-80
2024/03/02 01:08:51;;;;;;;22.20;15.00;;;;;;;7.28;84.99;99752.09;131383;1254;108716;-81
2024/03/02 01:11:56;;;;;;;25.80;16.00;;;;;;;7.31;84.91;99751.13;131393;1257;107548;-80
2024/03/02 01:15:03;;;;;;;22.80;15.90;;;;;;;7.34;84.97;99748.33;131307;1255;107650;-80
2024/03/02 01:18:09;;;;;;;21.10;15.10;;;;;;;7.39;85.08;99739.75;131358;1257;107700;-80
2024/03/02 01:21:16;;;;;;;23.80;14.70;;;;;;;7.42;85.33;99738.34;131339;1255;106824;-80
2024/03/02 01:24:21;;;;;;;20.50;13.00;;;;;;;7.45;85.24;99745.46;131458;1256;106460;-81
2024/03/02 01:27:28;;;;;;;24.20;15.10;;;;;;;7.51;85.21;99736.33;131380;1257;107694;-81
2024/03/02 01:30:33;;;;;;;24.70;16.20;;;;;;;7.58;85.22;99731.73;131267;1255;107320;-80
2024/03/02 01:33:39;;;;;;;24.20;16.30;;;;;;;7.64;85.24;99732.05;131214;1275;106832;-80
2024/03/02 01:36:44;;;;;;;23.00;16.10;;;;;;;7.66;85.35;99731.88;131272;1257;107835;-80
2024/03/02 01:39:50;;;;;;;22.00;15.60;;;;;;;7.67;85.25;99732.81;131883;1256;107736;-80
2024/03/02 01:42:57;;;;;;;22.70;15.50;;;;;;;7.66;85.21;99725.98;131458;1254;107425;-81
2024/03/02 01:46:03;;;;;;;21.10;14.20;;;;;;;7.65;85.17;99722.84;131299;1255;107111;-81
2024/03/02 01:49:09;;;;;;;26.50;17.50;;;;;;;7.65;85.30;99727.46;131289;1250;108791;-80
2024/03/02 01:52:15;;;;;;;22.20;15.60;;;;;;;7.66;85.32;99726.67;131265;1251;106966;-81
2024/03/02 01:55:20;;;;;;;22.30;15.80;;;;;;;7.67;85.26;99723.59;131333;1256;106522;-80
2024/03/02 01:58:26;;;;;;;23.40;15.60;;;;;;;7.67;85.31;99720.38;131261;1257;106776;-80
2024/03/02 02:01:32;;;;;;;21.50;15.50;;;;;;;7.67;85.12;99713.48;131197;1256;107785;-80
2024/03/02 02:04:37;;;;;;;24.00;15.40;;;;;;;7.68;85.30;99715.34;131311;1257;108652;-80
2024/03/02 02:07:44;;;;;;;21.60;13.80;;;;;;;7.68;85.37;99713.06;131224;1257;106915;-80
2024/03/02 02:10:49;;;;;;;22.50;15.50;;;;;;;7.69;85.49;99711.58;131037;1259;109621;-80
2024/03/02 02:13:56;;;;;;;22.90;16.30;;;;;;;7.74;85.53;99716.27;131334;1254;107552;-80
2024/03/02 02:17:02;;;;;;;25.50;17.70;;;;;;;7.77;85.37;99712.89;131214;1265;108369;-81
2024/03/02 02:20:09;;;;;;;22.90;16.10;;;;;;;7.81;85.41;99712.87;131230;1257;107144;-81
2024/03/02 02:23:15;;;;;;;24.60;17.10;;;;;;;7.83;85.44;99711.97;131217;1257;107444;-80
2024/03/02 02:26:20;;;;;;;29.30;18.60;;;;;;;7.84;85.58;99710.29;131146;1257;107596;-80
2024/03/02 02:29:26;;;;;;;21.60;14.60;;;;;;;7.83;85.52;99705.05;131293;1257;108544;-81
2024/03/02 02:32:31;;;;;;;23.10;15.60;;;;;;;7.82;85.66;99701.58;131174;1254;108331;-80
2024/03/02 02:35:37;;;;;;;32.80;20.50;;;;;;;7.86;85.69;99696.13;131191;1257;107171;-80
2024/03/02 02:38:47;;;;;;;31.70;19.30;;;;;;;7.89;85.54;99694.82;131193;1264;107665;-80
2024/03/02 02:41:53;;;;;;;23.70;16.80;;;;;;;7.90;85.62;99696.57;131310;1257;108629;-80
2024/03/02 02:44:58;;;;;;;32.90;20.60;;;;;;;7.92;85.53;99697.63;131274;1256;106417;-81
2024/03/02 02:48:05;;;;;;;40.60;22.10;;;;;;;7.91;85.52;99691.71;131379;1256;107736;-80
2024/03/02 02:51:11;;;;;;;30.50;17.90;;;;;;;7.92;85.55;99688.23;131349;1264;107521;-80
2024/03/02 02:54:17;;;;;;;27.50;18.00;;;;;;;7.91;85.76;99689.84;131291;1264;107173;-80
2024/03/02 02:57:23;;;;;;;34.40;20.40;;;;;;;7.89;85.71;99687.83;131205;1270;107563;-80
2024/03/02 03:00:28;;;;;;;26.00;17.20;;;;;;;7.93;85.78;99689.96;131334;1264;107770;-80
2024/03/02 03:03:34;;;;;;;30.40;21.50;;;;;;;7.96;85.83;99684.18;131209;1256;108656;-80
2024/03/02 03:06:39;;;;;;;28.00;18.60;;;;;;;7.98;85.97;99686.65;131231;1257;107757;-80
2024/03/02 03:09:45;;;;;;;27.60;17.20;;;;;;;7.95;86.01;99691.84;131132;1264;108760;-80
2024/03/02 03:12:51;;;;;;;22.40;14.80;;;;;;;7.95;85.91;99686.19;131167;1256;108476;-80
2024/03/02 03:15:57;;;;;;;31.60;17.10;;;;;;;7.96;85.95;99685.21;131307;1257;107286;-80
2024/03/02 03:19:03;;;;;;;34.30;20.90;;;;;;;7.99;85.87;99682.92;131349;1261;108142;-80
2024/03/02 03:22:08;;;;;;;27.60;17.20;;;;;;;8.02;85.96;99676.99;131202;1257;107680;-82
2024/03/02 03:25:14;;;;;;;24.80;16.20;;;;;;;8.05;85.81;99676.39;131227;1256;107694;-80
2024/03/02 03:28:20;;;;;;;28.60;18.40;;;;;;;8.08;85.79;99677.52;131255;1264;108618;-81
2024/03/02 03:31:26;;;;;;;26.00;17.60;;;;;;;8.07;85.87;99666.61;131174;1275;109071;-81
2024/03/02 03:34:33;;;;;;;28.90;19.40;;;;;;;8.05;85.82;99674.71;131202;1254;107786;-80
2024/03/02 03:37:38;;;;;;;25.50;17.10;;;;;;;8.03;85.91;99673.75;131258;1257;106284;-80
2024/03/02 03:40:44;;;;;;;22.10;15.40;;;;;;;7.99;86.05;99672.02;131308;1255;107429;-80
2024/03/02 03:43:50;;;;;;;23.00;15.10;;;;;;;7.98;86.10;99675.50;131102;1259;108585;-80
2024/03/02 03:46:56;;;;;;;22.60;15.30;;;;;;;7.95;86.17;99676.23;131164;1264;108721;-80
2024/03/02 03:50:04;;;;;;;25.50;17.50;;;;;;;7.97;86.26;99674.13;131187;1257;106734;-80
2024/03/02 03:53:10;;;;;;;24.00;15.90;;;;;;;8.01;85.98;99673.56;131229;1257;106988;-80
2024/03/02 03:56:15;;;;;;;24.10;16.90;;;;;;;8.01;85.96;99673.16;131313;1257;107401;-80
2024/03/02 03:59:21;;;;;;;23.70;17.40;;;;;;;7.98;86.05;99673.52;131342;1256;107741;-80
2024/03/02 04:02:26;;;;;;;22.90;16.20;;;;;;;7.95;85.84;99674.14;131306;1257;107039;-80
2024/03/02 04:05:32;;;;;;;17.60;12.20;;;;;;;7.93;86.12;99673.35;131257;1256;108594;-80
2024/03/02 04:08:38;;;;;;;24.80;16.30;;;;;;;7.91;86.01;99681.44;131269;1252;107718;-80
2024/03/02 04:11:44;;;;;;;23.30;15.40;;;;;;;7.91;85.78;99678.11;131337;1256;108141;-80
2024/03/02 04:14:49;;;;;;;22.90;16.00;;;;;;;7.90;85.82;99678.59;131202;1257;107397;-80
2024/03/02 04:17:55;;;;;;;20.00;15.00;;;;;;;7.89;86.19;99674.42;131258;1257;107267;-82
2024/03/02 04:21:01;;;;;;;24.80;16.50;;;;;;;7.86;85.98;99671.16;131217;1274;107567;-80
2024/03/02 04:24:08;;;;;;;25.70;17.40;;;;;;;7.81;86.11;99666.85;131373;1264;106690;-80
2024/03/02 04:27:13;;;;;;;25.30;17.30;;;;;;;7.75;86.15;99674.16;131350;1254;106454;-80
2024/03/02 04:30:19;;;;;;;23.30;15.60;;;;;;;7.67;86.26;99671.05;131234;1256;107778;-80
2024/03/02 04:33:25;;;;;;;22.00;14.80;;;;;;;7.62;86.10;99671.98;131232;1260;107094;-80
2024/03/02 04:36:30;;;;;;;30.60;20.50;;;;;;;7.59;86.28;99678.90;131318;1257;107744;-80
2024/03/02 04:39:36;;;;;;;24.80;17.60;;;;;;;7.54;86.27;99683.24;131194;1251;108731;-80
2024/03/02 04:42:42;;;;;;;24.60;17.00;;;;;;;7.54;86.43;99687.92;131178;1257;107784;-80
2024/03/02 04:45:48;;;;;;;24.80;17.00;;;;;;;7.53;86.34;99683.17;131281;1257;107544;-80
2024/03/02 04:48:56;;;;;;;26.10;17.50;;;;;;;7.49;86.33;99686.57;131137;1258;108634;-80
2024/03/02 04:52:02;;;;;;;25.80;17.10;;;;;;;7.42;86.71;99681.15;131096;1266;106761;-80
2024/03/02 04:55:24;;;;;;;21.90;14.80;;;;;;;7.35;86.57;99681.89;131204;1257;107632;-82
2024/03/02 04:58:30;;;;;;;24.50;16.90;;;;;;;7.34;86.78;99684.63;131269;1254;107667;-82
2024/03/02 05:01:36;;;;;;;27.60;18.20;;;;;;;7.36;86.74;99692.25;131315;1256;107590;-82
2024/03/02 05:04:41;;;;;;;25.50;17.50;;;;;;;7.39;86.96;99687.14;131247;1257;106401;-82
2024/03/02 05:07:47;;;;;;;28.00;18.80;;;;;;;7.39;86.79;99693.55;131176;1255;107749;-82
2024/03/02 05:10:53;;;;;;;29.30;19.60;;;;;;;7.37;86.85;99698.48;131377;1251;107676;-82
2024/03/02 05:13:58;;;;;;;28.10;17.90;;;;;;;7.38;86.98;99711.17;131267;1265;108332;-82
2024/03/02 05:17:04;;;;;;;22.40;15.00;;;;;;;7.40;87.00;99700.00;131293;1256;106838;-82
2024/03/02 05:20:11;;;;;;;24.40;16.70;;;;;;;7.42;86.99;99706.33;131184;1261;108588;-82
2024/03/02 05:23:16;;;;;;;28.00;19.40;;;;;;;7.45;86.86;99705.17;131153;1257;107642;-83
2024/03/02 05:26:22;;;;;;;29.40;21.10;;;;;;;7.45;86.80;99705.87;131256;1252;108632;-83
2024/03/02 05:29:28;;;;;;;28.00;19.70;;;;;;;7.45;86.87;99714.03;131191;1251;108287;-80
2024/03/02 05:32:33;;;;;;;29.10;20.40;;;;;;;7.42;86.88;99715.05;131259;1254;106480;-82
2024/03/02 05:35:39;;;;;;;29.50;20.90;;;;;;;7.39;86.80;99714.05;131220;1258;108383;-80
2024/03/02 05:38:45;;;;;;;25.00;17.10;;;;;;;7.35;86.83;99716.55;131207;1252;107508;-82
2024/03/02 05:41:51;;;;;;;27.20;18.20;;;;;;;7.31;86.82;99723.33;131181;1257;106258;-82
2024/03/02 05:44:56;;;;;;;26.40;18.00;;;;;;;7.29;87.07;99730.05;131220;1264;107337;-82
2024/03/02 05:48:02;;;;;;;27.20;17.60;;;;;;;7.28;87.15;99730.27;131157;1255;106939;-81
2024/03/02 05:51:08;;;;;;;27.30;18.60;;;;;;;7.30;86.95;99733.11;131193;1256;108536;-81
2024/03/02 05:54:13;;;;;;;28.80;19.40;;;;;;;7.28;87.16;99732.48;131176;1256;107823;-81
2024/03/02 05:57:33;;;;;;;30.00;19.00;;;;;;;7.25;87.22;99731.15;131185;1264;107056;-81
2024/03/02 06:00:39;;;;;;;27.50;16.90;;;;;;;7.24;87.15;99732.66;131290;1264;107707;-81
2024/03/02 06:03:44;;;;;;;27.70;17.60;;;;;;;7.24;87.18;99731.95;131182;1258;107644;-81
2024/03/02 06:06:50;;;;;;;28.50;20.40;;;;;;;7.25;87.19;99735.19;131278;1254;108487;-81
2024/03/02 06:09:55;;;;;;;28.60;19.70;;;;;;;7.27;87.39;99736.42;131198;1257;107059;-82
2024/03/02 06:13:01;;;;;;;29.60;18.90;;;;;;;7.32;87.19;99731.57;131160;1257;108754;-81
2024/03/02 06:16:08;;;;;;;30.30;20.00;;;;;;;7.33;87.18;99727.95;131742;1251;108380;-81
2024/03/02 06:19:13;;;;;;;28.40;19.60;;;;;;;7.32;87.25;99731.51;131752;1251;106798;-81
2024/03/02 06:22:19;;;;;;;27.70;17.40;;;;;;;7.33;87.22;99737.05;131726;1251;107855;-81
2024/03/02 06:25:25;;;;;;;26.40;17.30;;;;;;;7.33;87.34;99736.90;131678;1251;106885;-78
2024/03/02 06:28:30;;;;;;;28.80;17.80;;;;;;;7.35;87.36;99745.45;131457;1251;107540;-80
2024/03/02 06:31:36;;;;;;;29.20;20.10;;;;;;;7.38;87.28;99750.24;131834;1248;106852;-79
2024/03/02 06:34:41;;;;;;;29.60;20.40;;;;;;;7.40;87.37;99748.11;131466;1248;106409;-77
2024/03/02 06:37:47;;;;;;;31.50;21.30;;;;;;;7.46;87.46;99755.19;131640;1248;107421;-77
2024/03/02 06:40:52;;;;;;;30.00;20.50;;;;;;;7.48;87.38;99752.96;131539;1248;107887;-79
2024/03/02 06:43:59;;;;;;;31.40;20.80;;;;;;;7.49;87.65;99754.86;131462;1251;108516;-77
2024/03/02 06:47:05;;;;;;;27.40;16.70;;;;;;;7.53;87.57;99750.48;131449;1251;106220;-78
2024/03/02 06:50:11;;;;;;;34.70;21.60;;;;;;;7.57;87.69;99753.11;131766;1251;107177;-80
2024/03/02 06:53:17;;;;;;;33.50;22.30;;;;;;;7.63;87.62;99762.36;131768;1247;107637;-78
2024/03/02 06:56:23;;;;;;;34.10;23.60;;;;;;;7.67;87.65;99763.56;131568;1251;107888;-78
2024/03/02 06:59:28;;;;;;;34.40;23.50;;;;;;;7.73;87.53;99755.77;131558;1251;108750;-79
2024/03/02 07:02:34;;;;;;;33.80;22.20;;;;;;;7.78;87.52;99759.35;131665;1251;106881;-84
2024/03/02 07:05:39;;;;;;;34.20;22.90;;;;;;;7.79;87.51;99757.73;131827;1247;107653;-81
2024/03/02 07:08:45;;;;;;;31.50;20.80;;;;;;;7.81;87.44;99758.00;132009;1251;107911;-81
2024/03/02 07:11:51;;;;;;;34.10;23.40;;;;;;;7.86;87.71;99764.09;131830;1251;108777;-81
2024/03/02 07:15:11;;;;;;;34.40;22.90;;;;;;;7.96;87.50;99767.23;132013;1248;107151;-81
2024/03/02 07:18:17;;;;;;;38.60;26.60;;;;;;;8.05;87.57;99768.48;131707;1248;107512;-81
2024/03/02 07:21:23;;;;;;;41.80;25.10;;;;;;;8.10;87.53;99766.37;131596;1248;107012;-81
2024/03/02 07:24:28;;;;;;;40.00;25.10;;;;;;;8.13;87.54;99775.11;131749;1248;106382;-82
2024/03/02 07:27:35;;;;;;;35.90;22.60;;;;;;;8.15;87.53;99773.20;131975;1251;106566;-84
2024/03/02 07:30:40;;;;;;;31.60;21.10;;;;;;;8.19;87.53;99770.64;131671;1253;108729;-82
2024/03/02 07:33:47;;;;;;;37.60;22.60;;;;;;;8.25;87.45;99776.27;131637;1252;106584;-81
2024/03/02 07:36:53;;;;;;;33.50;22.50;;;;;;;8.33;87.47;99779.77;131751;1253;108727;-83
2024/03/02 07:39:59;;;;;;;34.50;23.00;;;;;;;8.41;87.32;99784.14;131788;1250;106834;-83
2024/03/02 07:43:04;;;;;;;34.90;22.70;;;;;;;8.43;87.56;99784.62;131957;1251;108359;-85
2024/03/02 07:46:10;;;;;;;35.70;24.20;;;;;;;8.47;87.10;99789.19;132618;1247;108115;-83
2024/03/02 07:49:19;;;;;;;34.00;22.00;;;;;;;8.48;87.37;99783.08;132143;1251;108526;-85
2024/03/02 07:52:26;;;;;;;33.50;20.20;;;;;;;8.54;87.15;99787.52;131811;1247;106443;-86
2024/03/02 07:55:40;;;;;;;34.80;22.30;;;;;;;8.61;86.94;99787.48;131533;1254;109538;-83
2024/03/02 07:58:50;;;;;;;37.40;24.00;;;;;;;8.68;87.10;99784.19;131553;1253;108124;-89
2024/03/02 08:01:56;;;;;;;34.30;23.20;;;;;;;8.69;87.01;99791.00;132045;1251;107828;-86
2024/03/02 08:05:02;;;;;;;35.20;23.30;;;;;;;8.71;86.86;99794.19;131791;1250;106878;-84
2024/03/02 08:08:08;;;;;;;35.40;24.20;;;;;;;8.71;86.89;99804.59;131750;1251;107920;-88
2024/03/02 08:11:14;;;;;;;38.20;24.50;;;;;;;8.65;86.70;99809.37;131837;1248;107582;-85
2024/03/02 08:14:19;;;;;;;35.90;23.20;;;;;;;8.59;86.84;99809.61;131807;1251;106768;-87
2024/03/02 08:17:27;;;;;;;33.50;22.40;;;;;;;8.54;87.06;99803.44;131878;1248;107644;-86
2024/03/02 08:20:33;;;;;;;38.20;25.20;;;;;;;8.53;87.05;99801.27;131828;1246;107702;-83
2024/03/02 08:23:40;;;;;;;40.20;26.10;;;;;;;8.53;86.79;99803.20;131963;1250;106787;-83
2024/03/02 08:26:46;;;;;;;35.20;23.60;;;;;;;8.55;87.08;99806.13;132003;1251;106883;-84
2024/03/02 08:29:51;;;;;;;35.30;23.80;;;;;;;8.58;87.13;99810.98;132153;1247;108770;-85
2024/03/02 08:32:57;;;;;;;38.20;25.50;;;;;;;8.60;86.94;99812.41;132008;1247;108606;-85
2024/03/02 08:36:03;;;;;;;40.10;23.90;;;;;;;8.60;86.93;99813.07;131973;1247;108217;-84
2024/03/02 08:39:15;;;;;;;38.30;22.40;;;;;;;8.61;86.70;99817.44;132957;1251;107837;-87
2024/03/02 08:42:20;;;;;;;38.80;24.30;;;;;;;8.64;87.02;99813.77;132358;1247;107801;-83
2024/03/02 08:45:26;;;;;;;37.00;24.20;;;;;;;8.70;86.86;99811.32;132080;1247;107445;-84
2024/03/02 08:48:31;;;;;;;38.30;24.80;;;;;;;8.76;86.72;99813.99;132173;1250;108585;-84
2024/03/02 08:51:37;;;;;;;43.00;27.30;;;;;;;8.80;86.79;99813.29;132136;1248;108169;-84
2024/03/02 08:54:43;;;;;;;39.40;26.10;;;;;;;8.81;86.62;99808.75;131929;1247;109188;-85
2024/03/02 08:57:51;;;;;;;40.40;25.90;;;;;;;8.82;86.70;99812.15;131976;1247;106545;-83
2024/03/02 09:00:57;;;;;;;38.00;24.60;;;;;;;8.83;86.64;99808.86;132426;1248;108609;-84
2024/03/02 09:04:02;;;;;;;36.40;22.10;;;;;;;8.84;86.68;99807.77;132140;1247;108778;-84
2024/03/02 09:07:08;;;;;;;42.50;25.00;;;;;;;8.86;86.65;99810.73;131896;1263;108419;-85
2024/03/02 09:10:13;;;;;;;38.90;25.30;;;;;;;8.93;86.43;99813.60;131962;1247;107673;-86
2024/03/02 09:13:19;;;;;;;38.50;25.10;;;;;;;8.98;86.58;99808.81;132162;1248;107974;-84
2024/03/02 09:16:30;;;;;;;38.70;23.90;;;;;;;9.05;86.26;99805.25;132064;1247;106610;-83
2024/03/02 09:19:35;;;;;;;38.20;25.80;;;;;;;9.12;86.34;99808.38;134169;1246;106764;-85
2024/03/02 09:22:41;;;;;;;37.30;24.50;;;;;;;9.12;86.15;99808.83;132104;1247;106846;-86
2024/03/02 09:25:47;;;;;;;37.60;24.20;;;;;;;9.09;85.96;99807.23;132376;1248;108647;-85
2024/03/02 09:28:53;;;;;;;36.80;24.00;;;;;;;9.08;86.32;99802.67;132925;1247;108549;-85
2024/03/02 09:31:58;;;;;;;40.40;25.80;;;;;;;9.13;86.47;99808.17;132153;1248;108090;-84
2024/03/02 09:35:04;;;;;;;42.10;26.80;;;;;;;9.20;86.32;99806.60;134108;1247;107034;-86
2024/03/02 09:38:10;;;;;;;38.00;25.40;;;;;;;9.26;86.08;99808.84;135665;1247;107767;-86
2024/03/02 09:41:16;;;;;;;42.40;28.40;;;;;;;9.35;86.16;99809.77;135619;1247;107027;-85
2024/03/02 09:44:22;;;;;;;40.50;26.60;;;;;;;9.41;86.12;99809.25;135375;1247;107723;-87
2024/03/02 09:47:28;;;;;;;39.50;26.20;;;;;;;9.45;85.94;99805.48;133222;1247;108866;-84
2024/03/02 09:50:33;;;;;;;40.80;25.50;;;;;;;9.53;86.19;99805.95;132249;1251;107666;-85
2024/03/02 09:53:39;;;;;;;43.50;26.70;;;;;;;9.59;85.83;99809.89;132055;1251;108585;-84
2024/03/02 09:56:45;;;;;;;41.20;26.80;;;;;;;9.64;85.84;99813.14;131604;1247;108792;-83
2024/03/02 09:59:50;;;;;;;41.50;26.80;;;;;;;9.70;85.43;99816.07;132697;1247;108371;-86
2024/03/02 10:02:58;;;;;;;43.80;27.60;;;;;;;9.73;85.29;99812.78;132062;1247;108711;-85
2024/03/02 10:06:24;;;;;;;52.60;32.00;;;;;;;9.78;85.71;99812.02;132599;1250;106455;-85
2024/03/02 10:09:32;;;;;;;48.20;30.40;;;;;;;9.80;85.25;99808.59;131956;1250;107668;-83
2024/03/02 10:12:38;;;;;;;46.30;29.50;;;;;;;9.82;85.27;99807.92;132066;1250;108622;-83
2024/03/02 10:15:43;;;;;;;48.30;29.60;;;;;;;9.82;85.18;99804.32;131787;1247;107900;-85
2024/03/02 10:18:49;;;;;;;43.70;27.00;;;;;;;9.83;85.16;99804.25;131747;1251;107697;-83
2024/03/02 10:21:56;;;;;;;45.00;28.10;;;;;;;9.82;85.02;99801.45;131947;1247;108376;-82
2024/03/02 10:25:02;;;;;;;47.80;29.50;;;;;;;9.87;85.13;99800.34;131946;1251;108672;-83
2024/03/02 10:28:08;;;;;;;42.90;28.50;;;;;;;9.92;85.01;99798.39;131758;1247;106613;-83
2024/03/02 10:31:14;;;;;;;51.80;31.20;;;;;;;9.98;84.72;99795.13;131867;1247;107128;-82
2024/03/02 10:34:19;;;;;;;48.80;30.80;;;;;;;10.03;84.99;99791.52;131828;1260;107171;-83
2024/03/02 10:37:25;;;;;;;51.20;32.10;;;;;;;10.13;85.32;99788.71;131835;1251;108499;-81
2024/03/02 10:40:32;;;;;;;53.50;33.50;;;;;;;10.23;85.13;99790.51;131808;1251;106908;-86
2024/03/02 10:43:38;;;;;;;54.10;31.00;;;;;;;10.27;84.73;99789.19;131970;1251;108637;-85
2024/03/02 10:46:46;;;;;;;50.50;30.10;;;;;;;10.28;84.78;99791.96;131797;1251;108747;-85
2024/03/02 10:49:55;;;;;;;53.30;31.80;;;;;;;10.30;84.39;99788.68;131724;1247;108538;-84
2024/03/02 10:53:01;;;;;;;51.50;32.40;;;;;;;10.30;84.56;99794.43;131626;1253;108895;-86
2024/03/02 10:56:10;;;;;;;55.50;33.50;;;;;;;10.34;84.45;99798.14;131833;1248;108553;-87
2024/03/02 10:59:24;;;;;;;50.80;31.80;;;;;;;10.33;84.69;99787.90;131968;1251;106396;-87
2024/03/02 11:02:31;;;;;;;50.90;32.50;;;;;;;10.34;84.38;99785.83;131860;1247;107602;-86
2024/03/02 11:05:41;;;;;;;54.30;31.50;;;;;;;10.37;84.19;99784.77;131980;1251;106911;-84
2024/03/02 11:08:50;;;;;;;53.80;34.20;;;;;;;10.37;84.15;99783.55;131796;1248;108559;-84
2024/03/02 11:12:03;;;;;;;54.40;32.30;;;;;;;10.35;84.37;99782.30;131509;1253;107806;-84
2024/03/02 11:15:17;;;;;;;52.30;30.80;;;;;;;10.32;84.01;99778.90;131717;1247;178858;-84
2024/03/02 11:18:22;;;;;;;47.60;28.40;;;;;;;10.33;84.01;99778.98;131933;1252;107195;-88
2024/03/02 11:21:28;;;;;;;47.80;28.30;;;;;;;10.37;83.80;99780.27;132542;1247;108636;-85
2024/03/02 11:24:35;;;;;;;45.00;28.20;;;;;;;10.39;83.89;99777.08;133164;1247;108014;-83
2024/03/02 11:28:02;;;;;;;50.70;29.60;;;;;;;10.42;84.10;99779.12;133589;1247;106355;-83
2024/03/02 11:31:07;;;;;;;51.70;31.60;;;;;;;10.42;83.50;99777.46;132354;1247;109174;-82
2024/03/02 11:34:31;;;;;;;48.70;29.40;;;;;;;10.43;83.40;99780.92;132164;1251;106504;-82
2024/03/02 11:37:37;;;;;;;54.10;32.40;;;;;;;10.45;83.43;99778.83;131844;1251;107833;-83
2024/03/02 11:40:43;;;;;;;55.00;33.40;;;;;;;10.43;83.14;99777.77;131985;1251;106224;-82
2024/03/02 11:43:49;;;;;;;57.00;33.30;;;;;;;10.35;83.22;99775.70;131838;1251;106451;-82
2024/03/02 11:47:00;;;;;;;59.70;33.50;;;;;;;10.31;83.48;99776.92;131800;1246;106660;-83
2024/03/02 11:50:07;;;;;;;59.80;33.40;;;;;;;10.30;83.49;99775.55;131856;1251;107973;-84
2024/03/02 11:53:13;;;;;;;57.80;34.80;;;;;;;10.33;83.47;99769.23;131959;1248;108984;-82
2024/03/02 11:56:19;;;;;;;71.50;38.50;;;;;;;10.45;83.50;99774.12;131931;1247;107315;-82
2024/03/02 11:59:26;;;;;;;73.20;38.70;;;;;;;10.56;83.23;99775.61;132167;1248;108601;-80
2024/03/02 12:02:32;;;;;;;72.10;39.40;;;;;;;10.66;83.00;99777.98;132211;1247;107866;-82
2024/03/02 12:05:38;;;;;;;68.10;39.60;;;;;;;10.67;82.95;99773.58;131824;1247;108641;-81
2024/03/02 12:08:44;;;;;;;70.10;41.30;;;;;;;10.64;83.30;99778.15;131764;1251;108445;-79
2024/03/02 12:12:01;;;;;;;72.00;40.40;;;;;;;10.61;82.87;99775.79;131897;1251;106426;-82
2024/03/02 12:15:09;;;;;;;73.50;40.40;;;;;;;10.57;83.07;99772.34;131787;1251;106351;-81
2024/03/02 12:18:15;;;;;;;70.70;39.70;;;;;;;10.52;83.11;99770.73;131982;1247;106401;-80
2024/03/02 12:21:21;;;;;;;71.50;38.60;;;;;;;10.49;83.34;99765.69;131719;1246;107066;-79
2024/03/02 12:24:28;;;;;;;67.60;36.60;;;;;;;10.52;83.07;99764.00;131583;1247;107828;-81
2024/03/02 12:27:33;;;;;;;63.30;36.90;;;;;;;10.60;83.31;99760.11;131549;1250;107852;-79
2024/03/02 12:30:39;;;;;;;66.00;37.50;;;;;;;10.73;82.92;99759.81;131533;1247;106543;-78
2024/03/02 12:33:47;;;;;;;77.20;44.40;;;;;;;10.85;82.94;99759.54;131563;1248;108773;-79
2024/03/02 12:36:53;;;;;;;71.40;40.00;;;;;;;10.94;82.81;99756.27;131571;1247;108645;-78
2024/03/02 12:39:59;;;;;;;64.80;38.50;;;;;;;10.99;82.49;99758.99;131494;1252;108641;-80
2024/03/02 12:43:06;;;;;;;63.60;37.90;;;;;;;11.04;82.39;99758.36;132089;1247;106872;-83
2024/03/02 12:46:13;;;;;;;68.50;38.20;;;;;;;11.09;82.46;99757.50;132272;1247;107763;-80
2024/03/02 12:49:23;;;;;;;70.70;38.90;;;;;;;11.11;82.25;99752.75;131882;1250;106456;-84
2024/03/02 12:52:28;;;;;;;73.90;41.70;;;;;;;11.11;82.34;99743.88;131889;1250;106549;-81
2024/03/02 12:55:34;;;;;;;70.70;38.50;;;;;;;11.12;82.43;99738.98;132121;1250;106795;-80
2024/03/02 12:58:42;;;;;;;71.00;39.00;;;;;;;11.18;82.37;99740.10;132147;1246;108573;-80
2024/03/02 13:01:54;;;;;;;72.00;41.70;;;;;;;11.25;82.38;99734.30;132019;1248;106769;-83
2024/03/02 13:05:00;;;;;;;65.70;37.50;;;;;;;11.28;81.95;99735.39;131742;1247;107780;-83
2024/03/02 13:08:07;;;;;;;68.90;38.40;;;;;;;11.32;81.87;99740.16;131692;1251;106573;-82
2024/03/02 13:11:13;;;;;;;66.60;39.80;;;;;;;11.33;81.92;99743.44;131525;1253;106043;-83
2024/03/02 13:14:19;;;;;;;62.30;37.70;;;;;;;11.33;81.73;99742.16;131617;1253;107739;-80
2024/03/02 13:17:24;;;;;;;63.90;37.20;;;;;;;11.33;81.77;99742.13;131766;1253;107153;-79
2024/03/02 13:20:35;;;;;;;73.50;39.30;;;;;;;11.34;81.67;99740.43;131821;1247;107348;-81
2024/03/02 13:23:41;;;;;;;66.70;38.70;;;;;;;11.35;81.76;99735.02;131638;1253;107563;-84
2024/03/02 13:26:46;;;;;;;72.60;39.30;;;;;;;11.38;81.42;99734.34;131533;1248;106582;-83
2024/03/02 13:29:52;;;;;;;71.00;41.70;;;;;;;11.42;81.65;99731.89;131780;1247;109661;-79
2024/03/02 13:32:57;;;;;;;76.70;41.70;;;;;;;11.46;81.56;99730.45;132165;1251;108572;-79
2024/03/02 13:36:04;;;;;;;72.80;39.90;;;;;;;11.49;81.48;99727.43;131703;1253;107022;-80
2024/03/02 13:39:10;;;;;;;70.30;40.20;;;;;;;11.55;81.48;99728.27;131793;1247;107742;-80
2024/03/02 13:42:16;;;;;;;73.30;41.00;;;;;;;11.60;81.38;99727.58;132111;1250;106490;-80
2024/03/02 13:45:22;;;;;;;67.70;40.80;;;;;;;11.68;81.37;99734.37;131994;1247;107713;-82
2024/03/02 13:48:27;;;;;;;66.40;39.50;;;;;;;11.76;81.23;99730.23;131977;1248;107227;-81
2024/03/02 13:51:33;;;;;;;67.30;40.90;;;;;;;11.78;80.94;99733.38;131901;1251;106542;-83
2024/03/02 13:54:41;;;;;;;64.60;38.20;;;;;;;11.76;80.60;99735.78;131780;1248;106869;-83
2024/03/02 13:57:49;;;;;;;67.40;38.90;;;;;;;11.70;80.45;99737.17;131853;1248;106872;-81
2024/03/02 14:00:56;;;;;;;74.80;42.50;;;;;;;11.63;80.71;99736.50;131927;1247;108628;-82
2024/03/02 14:04:02;;;;;;;80.60;44.30;;;;;;;11.57;80.63;99736.52;131920;1250;106716;-80
2024/03/02 14:07:08;;;;;;;72.70;42.40;;;;;;;11.48;80.57;99741.23;131753;1247;107625;-80